createdAt,value
2022-12-31T00:01:45.592Z,11.53
2022-12-31T00:06:49.691Z,11.63
2022-12-31T00:11:52.446Z,11.60
2022-12-31T00:16:55.211Z,11.44
2022-12-31T00:21:59.329Z,11.45
2022-12-31T00:27:02.196Z,11.03
2022-12-31T00:32:05.146Z,10.95
2022-12-31T00:37:09.507Z,11.05
2022-12-31T00:42:12.220Z,10.64
2022-12-31T00:47:14.770Z,11.03
2022-12-31T00:52:18.913Z,11.06
2022-12-31T00:57:21.705Z,11.01
2022-12-31T01:02:24.722Z,10.93
2022-12-31T01:07:29.127Z,11.17
2022-12-31T01:12:31.851Z,11.13
2022-12-31T01:17:35.561Z,11.12
2022-12-31T01:22:39.701Z,11.16
2022-12-31T01:27:42.497Z,11.28
2022-12-31T01:32:45.683Z,11.25
2022-12-31T01:37:49.812Z,11.22
2022-12-31T01:42:56.293Z,11.27
2022-12-31T01:48:00.655Z,11.21
2022-12-31T01:53:06.403Z,10.93
2022-12-31T01:58:12.588Z,11.09
2022-12-31T02:03:15.835Z,10.90
2022-12-31T02:08:20.226Z,10.85
2022-12-31T02:13:23.240Z,10.49
2022-12-31T02:18:35.054Z,10.56
2022-12-31T02:23:56.486Z,10.80
2022-12-31T02:29:22.123Z,10.74
2022-12-31T02:34:33.057Z,10.92
2022-12-31T02:39:37.140Z,11.02
2022-12-31T02:44:41.654Z,10.90
2022-12-31T02:49:59.780Z,10.97
2022-12-31T02:55:11.071Z,10.87
2022-12-31T03:00:35.029Z,11.06
2022-12-31T03:05:42.574Z,11.01
2022-12-31T03:10:45.379Z,11.01
2022-12-31T03:15:48.177Z,11.18
2022-12-31T03:21:09.990Z,11.11
2022-12-31T03:26:13.731Z,11.24
2022-12-31T03:31:17.135Z,11.16
2022-12-31T03:36:21.266Z,11.25
2022-12-31T03:41:24.097Z,11.19
2022-12-31T03:46:26.940Z,11.22
2022-12-31T03:51:31.136Z,11.61
2022-12-31T03:56:33.934Z,11.54
2022-12-31T04:01:37.001Z,11.54
2022-12-31T04:06:41.597Z,12.00
2022-12-31T04:11:44.461Z,11.69
2022-12-31T04:16:47.416Z,11.03
2022-12-31T04:21:51.599Z,10.66
2022-12-31T04:26:54.361Z,10.56
2022-12-31T04:31:57.340Z,10.88
2022-12-31T04:37:02.079Z,10.88
2022-12-31T04:42:04.912Z,10.99
2022-12-31T04:47:07.654Z,11.21
2022-12-31T04:52:11.794Z,11.16
2022-12-31T04:57:14.607Z,10.98
2022-12-31T05:02:17.533Z,10.92
2022-12-31T05:07:21.825Z,11.06
2022-12-31T05:12:24.842Z,11.15
2022-12-31T05:17:27.619Z,11.22
2022-12-31T05:22:31.895Z,11.24
2022-12-31T05:27:34.968Z,11.25
2022-12-31T05:32:37.973Z,11.17
2022-12-31T05:37:42.101Z,11.14
2022-12-31T05:42:45.212Z,11.29
2022-12-31T05:47:48.011Z,11.33
2022-12-31T05:52:53.634Z,11.42
2022-12-31T05:57:56.412Z,11.33
2022-12-31T06:02:59.474Z,11.41
2022-12-31T06:08:03.674Z,11.39
2022-12-31T06:13:06.510Z,11.46
2022-12-31T06:18:11.189Z,11.30
2022-12-31T06:23:15.350Z,11.81
2022-12-31T06:28:20.523Z,11.68
2022-12-31T06:33:23.479Z,11.62
2022-12-31T06:38:29.179Z,11.91
2022-12-31T06:43:31.964Z,12.00
2022-12-31T06:48:35.013Z,12.11
2022-12-31T06:53:39.161Z,12.34
2022-12-31T06:58:42.841Z,12.32
2022-12-31T07:03:56.054Z,12.43
2022-12-31T07:09:06.940Z,12.89
2022-12-31T07:14:21.811Z,12.89
2022-12-31T07:19:36.817Z,12.83
2022-12-31T07:24:41.752Z,12.50
2022-12-31T07:30:00.913Z,12.82
2022-12-31T07:35:13.723Z,12.50
2022-12-31T07:40:24.113Z,12.52
2022-12-31T07:45:33.404Z,12.77
2022-12-31T07:50:36.735Z,12.80
2022-12-31T07:55:40.955Z,12.95
2022-12-31T08:00:43.878Z,12.75
2022-12-31T08:05:54.398Z,12.75
2022-12-31T08:11:07.690Z,12.58
2022-12-31T08:16:13.278Z,12.96
2022-12-31T08:21:32.702Z,12.85
2022-12-31T08:26:50.958Z,12.98
2022-12-31T08:32:00.956Z,13.41
2022-12-31T08:37:09.737Z,13.65
2022-12-31T08:42:23.125Z,13.86
2022-12-31T08:47:38.837Z,13.98
2022-12-31T08:52:42.237Z,14.04
2022-12-31T08:57:56.499Z,14.25
2022-12-31T09:03:16.923Z,14.51
2022-12-31T09:08:29.377Z,14.70
2022-12-31T09:13:43.029Z,14.48
2022-12-31T09:18:45.914Z,14.48
2022-12-31T09:23:49.018Z,14.99
2022-12-31T09:29:04.054Z,15.11
2022-12-31T09:34:13.704Z,14.93
2022-12-31T09:39:23.579Z,15.05
2022-12-31T09:45:06.684Z,15.00
2022-12-31T09:50:41.486Z,15.17
2022-12-31T09:55:49.668Z,15.30
2022-12-31T10:01:01.970Z,15.06
2022-12-31T10:06:17.332Z,15.28
2022-12-31T10:11:28.323Z,15.39
2022-12-31T10:16:53.125Z,15.41
2022-12-31T10:22:09.812Z,15.49
2022-12-31T10:27:22.253Z,15.39
2022-12-31T10:32:44.217Z,15.18
2022-12-31T10:37:57.862Z,15.20
2022-12-31T10:43:32.970Z,15.00
2022-12-31T10:48:58.301Z,14.06
2022-12-31T10:54:50.016Z,14.33
2022-12-31T11:00:15.027Z,14.50
2022-12-31T11:05:50.614Z,14.78
2022-12-31T11:11:21.088Z,14.91
2022-12-31T11:16:44.872Z,14.85
2022-12-31T11:22:21.892Z,14.52
2022-12-31T11:27:39.880Z,13.91
2022-12-31T11:32:56.180Z,13.92
2022-12-31T11:38:10.449Z,14.36
2022-12-31T11:43:24.539Z,14.68
2022-12-31T11:48:33.401Z,15.21
2022-12-31T11:53:57.445Z,15.36
2022-12-31T11:59:04.870Z,15.91
2022-12-31T12:04:12.252Z,16.24
2022-12-31T12:09:23.068Z,15.72
2022-12-31T12:14:33.209Z,16.05
2022-12-31T12:19:42.779Z,15.75
2022-12-31T12:24:55.885Z,15.62
2022-12-31T12:29:59.285Z,15.72
2022-12-31T12:35:02.076Z,15.57
2022-12-31T12:40:09.851Z,15.57
2022-12-31T12:45:17.655Z,15.57
2022-12-31T12:50:25.208Z,15.61
2022-12-31T12:55:38.131Z,15.46
2022-12-31T13:00:48.115Z,15.67
2022-12-31T13:06:07.561Z,15.65
2022-12-31T13:11:29.225Z,15.74
2022-12-31T13:16:37.996Z,16.13
2022-12-31T13:21:50.286Z,15.79
2022-12-31T13:27:01.779Z,15.97
2022-12-31T13:32:08.822Z,15.79
2022-12-31T13:37:23.478Z,15.76
2022-12-31T13:42:33.730Z,15.55
2022-12-31T13:47:41.321Z,15.46
2022-12-31T13:52:49.817Z,15.41
2022-12-31T13:57:57.612Z,14.78
2022-12-31T14:03:10.094Z,14.22
2022-12-31T14:08:13.018Z,13.81
2022-12-31T14:13:41.709Z,13.94
2022-12-31T14:18:49.467Z,14.68
2022-12-31T14:24:03.053Z,14.57
2022-12-31T14:29:21.617Z,14.50
2022-12-31T14:34:37.523Z,14.94
2022-12-31T14:39:52.011Z,14.60
2022-12-31T14:45:05.636Z,14.79
2022-12-31T14:50:13.657Z,14.59
2022-12-31T14:55:26.511Z,14.51
2022-12-31T15:00:34.244Z,14.33
2022-12-31T15:05:38.974Z,14.22
2022-12-31T15:10:53.861Z,14.01
2022-12-31T15:16:19.722Z,13.71
2022-12-31T15:21:39.055Z,13.81
2022-12-31T15:26:49.525Z,13.74
2022-12-31T15:31:55.143Z,14.09
2022-12-31T15:36:59.812Z,13.99
2022-12-31T15:42:36.869Z,14.35
2022-12-31T15:47:30.402Z,14.29
2022-12-31T15:52:40.544Z,14.27
2022-12-31T15:57:44.486Z,14.25
2022-12-31T16:02:52.096Z,14.22
2022-12-31T16:07:56.415Z,14.35
2022-12-31T16:13:00.742Z,14.11
2022-12-31T16:18:07.113Z,13.94
2022-12-31T16:23:20.709Z,14.17
2022-12-31T16:28:27.371Z,14.19
2022-12-31T16:33:32.268Z,14.26
2022-12-31T16:38:36.915Z,14.48
2022-12-31T16:43:43.204Z,14.16
2022-12-31T16:48:49.666Z,14.27
2022-12-31T16:53:53.205Z,14.22
2022-12-31T16:59:02.524Z,14.37
2022-12-31T17:04:12.366Z,14.31
2022-12-31T17:09:20.666Z,14.25
2022-12-31T17:14:25.323Z,14.38
2022-12-31T17:19:38.053Z,14.36
2022-12-31T17:24:41.124Z,14.20
2022-12-31T17:29:44.213Z,14.25
2022-12-31T17:34:51.072Z,14.17
2022-12-31T17:40:16.996Z,14.16
2022-12-31T17:45:23.167Z,14.34
2022-12-31T17:50:28.704Z,14.27
2022-12-31T17:55:31.486Z,14.33
2022-12-31T18:00:37.587Z,14.22
2022-12-31T18:05:41.714Z,14.41
2022-12-31T18:10:45.905Z,14.66
2022-12-31T18:15:48.766Z,14.66
2022-12-31T18:20:55.000Z,14.69
2022-12-31T18:25:58.117Z,14.77
2022-12-31T18:31:01.065Z,14.52
2022-12-31T18:36:11.198Z,14.88
2022-12-31T18:41:19.455Z,14.50
2022-12-31T18:46:25.115Z,14.60
2022-12-31T18:51:32.367Z,14.52
2022-12-31T18:56:35.555Z,14.74
2022-12-31T19:01:40.669Z,14.57
2022-12-31T19:06:44.950Z,14.52
2022-12-31T19:11:48.896Z,14.71
2022-12-31T19:16:53.259Z,14.63
2022-12-31T19:21:57.407Z,14.53
2022-12-31T19:27:01.678Z,14.40
2022-12-31T19:32:04.620Z,14.49
2022-12-31T19:37:12.158Z,14.46
2022-12-31T19:42:16.462Z,14.34
2022-12-31T19:47:19.273Z,14.50
2022-12-31T19:52:23.446Z,14.71
2022-12-31T19:57:26.197Z,14.60
2022-12-31T20:02:29.194Z,14.49
2022-12-31T20:07:33.684Z,14.71
2022-12-31T20:12:40.674Z,14.38
2022-12-31T20:17:47.022Z,14.59
2022-12-31T20:22:51.174Z,14.53
2022-12-31T20:27:55.406Z,14.43
2022-12-31T20:32:58.179Z,14.44
2022-12-31T20:38:02.358Z,14.62
2022-12-31T20:43:05.161Z,14.77
2022-12-31T20:48:08.039Z,14.50
2022-12-31T20:53:14.653Z,14.41
2022-12-31T20:58:17.467Z,14.42
2022-12-31T21:04:02.341Z,14.62
2022-12-31T21:08:45.431Z,14.54
2022-12-31T21:13:48.249Z,14.66
2022-12-31T21:18:51.202Z,14.65
2022-12-31T21:23:55.429Z,14.49
2022-12-31T21:28:58.678Z,14.60
2022-12-31T21:34:01.453Z,14.49
2022-12-31T21:39:05.706Z,14.77
2022-12-31T21:44:08.498Z,14.48
2022-12-31T21:49:11.360Z,14.64
2022-12-31T21:54:35.577Z,14.66
2022-12-31T22:00:23.998Z,14.66
2022-12-31T22:05:24.976Z,14.75
2022-12-31T22:10:31.676Z,14.49
2022-12-31T22:15:38.277Z,14.80
2022-12-31T22:20:41.420Z,14.58
2022-12-31T22:25:45.565Z,14.75
2022-12-31T22:30:48.687Z,14.40
2022-12-31T22:35:59.526Z,14.53
2022-12-31T22:41:05.435Z,14.69
2022-12-31T22:46:10.743Z,14.34
2022-12-31T22:51:15.725Z,14.44
2022-12-31T22:56:20.039Z,14.56
2022-12-31T23:01:24.438Z,14.58
2022-12-31T23:06:28.689Z,14.58
2022-12-31T23:11:34.261Z,14.76
2022-12-31T23:16:54.465Z,14.96
2022-12-31T23:22:15.541Z,14.77
2022-12-31T23:27:20.099Z,14.67
2022-12-31T23:32:22.922Z,14.71
2022-12-31T23:37:25.818Z,14.75
2022-12-31T23:42:30.032Z,14.68
2022-12-31T23:47:33.385Z,14.75
2022-12-31T23:52:36.807Z,14.56
2022-12-31T23:57:40.934Z,14.94
